Time;durP1;ratioP1;P1;durP2;ratioP2;P2;SDS_P1;SDS_P2;PMS_P1;PMS_P2;Temp;Humidity;BMP_temperature;BMP_pressure;BME280_temperature;BME280_humidity;BME280_pressure;Samples;Min_cycle;Max_cycle;Signal;HPM_P1;HPM_P2
2022/09/23 00:01:49;;;;;;;7.38;6.20;;;;;;;9.39;87.99;98372.00;4172742;28;20296;-85
2022/09/23 00:03:52;;;;;;;6.88;5.90;;;;;;;9.37;89.17;98366.06;4174933;28;20230;-85
2022/09/23 00:05:58;;;;;;;6.40;5.80;;;;;;;9.36;88.53;98368.75;4173019;28;20226;-85
2022/09/23 00:08:02;;;;;;;8.82;6.65;;;;;;;9.35;89.40;98369.66;4175169;28;20206;-84
2022/09/23 00:10:07;;;;;;;8.38;5.75;;;;;;;9.34;88.21;98371.44;4174716;28;20750;-85
2022/09/23 00:12:10;;;;;;;6.90;6.20;;;;;;;9.30;88.31;98359.53;4169970;28;20641;-85
2022/09/23 00:14:13;;;;;;;6.20;5.40;;;;;;;9.28;88.95;98365.75;4187623;28;20796;-85
2022/09/23 00:16:19;;;;;;;6.20;5.60;;;;;;;9.26;88.19;98368.47;4173607;28;21069;-85
2022/09/23 00:18:22;;;;;;;6.53;5.68;;;;;;;9.24;88.54;98369.47;4171730;28;20316;-85
2022/09/23 00:20:25;;;;;;;8.13;6.30;;;;;;;9.20;88.68;98363.59;4171821;28;20681;-85
2022/09/23 00:22:28;;;;;;;7.03;6.00;;;;;;;9.20;88.08;98363.59;4173136;28;20640;-85
2022/09/23 00:24:32;;;;;;;8.27;6.20;;;;;;;9.22;88.53;98379.97;4171570;28;20218;-85
2022/09/23 00:26:36;;;;;;;6.90;6.20;;;;;;;9.20;88.48;98373.16;4157994;28;20657;-85
2022/09/23 00:28:40;;;;;;;8.55;6.30;;;;;;;9.18;88.03;98369.81;4173318;28;20656;-84
2022/09/23 00:30:43;;;;;;;6.53;5.90;;;;;;;9.16;89.38;98372.50;4172793;28;20271;-85
2022/09/23 00:32:46;;;;;;;7.00;6.25;;;;;;;9.14;89.23;98369.16;4168966;28;20226;-85
2022/09/23 00:34:50;;;;;;;9.80;6.60;;;;;;;9.13;88.79;98358.84;4170979;28;20260;-85
2022/09/23 00:36:53;;;;;;;6.93;6.23;;;;;;;9.12;89.28;98359.78;4187900;28;20694;-85
2022/09/23 00:38:56;;;;;;;6.80;6.10;;;;;;;9.12;88.82;98355.38;4170078;28;20672;-85
2022/09/23 00:40:59;;;;;;;7.10;6.30;;;;;;;9.11;88.82;98356.34;4188485;28;20589;-84
2022/09/23 00:43:04;;;;;;;7.15;6.20;;;;;;;9.10;88.59;98359.84;4177937;28;20673;-84
2022/09/23 00:45:11;;;;;;;7.30;6.47;;;;;;;9.08;89.25;98353.06;4173729;28;20731;-85
2022/09/23 00:47:19;;;;;;;7.22;6.53;;;;;;;9.08;87.97;98359.13;4168148;28;20662;-85
2022/09/23 00:49:25;;;;;;;8.10;6.35;;;;;;;9.03;88.83;98353.31;4172982;28;20315;-85
2022/09/23 00:51:33;;;;;;;7.47;6.77;;;;;;;9.03;88.69;98350.72;4169330;28;20317;-85
2022/09/23 00:53:36;;;;;;;6.80;6.10;;;;;;;9.01;89.69;98347.38;4173375;28;20679;-85
2022/09/23 00:55:44;;;;;;;6.83;6.13;;;;;;;8.97;88.61;98351.06;4170118;28;20722;-85
2022/09/23 00:57:47;;;;;;;7.63;5.90;;;;;;;8.94;88.25;98343.47;4174128;28;21017;-85
2022/09/23 00:59:51;;;;;;;7.40;6.45;;;;;;;8.93;89.07;98343.56;4188465;28;20229;-85
2022/09/23 01:01:56;;;;;;;7.35;6.57;;;;;;;8.91;88.96;98342.78;4169841;28;20222;-85
2022/09/23 01:03:59;;;;;;;8.63;5.82;;;;;;;8.90;90.10;98341.16;4170265;28;20225;-85
2022/09/23 01:06:02;;;;;;;7.93;5.93;;;;;;;8.89;89.43;98342.06;4167431;28;20238;-85
2022/09/23 01:08:05;;;;;;;6.30;5.70;;;;;;;8.89;89.69;98341.22;4173676;28;20216;-85
2022/09/23 01:10:09;;;;;;;6.03;5.38;;;;;;;8.87;89.58;98349.13;4176636;28;20217;-85
2022/09/23 01:12:22;;;;;;;6.53;5.57;;;;;;;8.86;89.60;98352.63;4154506;28;20230;-85
2022/09/23 01:14:37;;;;;;;6.72;6.03;;;;;;;8.85;89.81;98342.31;4184968;28;20906;-85
2022/09/23 01:16:45;;;;;;;6.80;6.07;;;;;;;8.83;89.53;98339.81;4172955;28;20247;-85
2022/09/23 01:18:53;;;;;;;9.48;5.57;;;;;;;8.81;89.15;98338.22;4175566;28;20232;-85
2022/09/23 01:21:00;;;;;;;7.13;6.25;;;;;;;8.82;89.67;98334.69;4171920;28;20654;-85
2022/09/23 01:23:17;;;;;;;7.53;6.72;;;;;;;8.81;88.88;98341.66;4176596;28;20213;-85
2022/09/23 01:25:34;;;;;;;7.22;6.13;;;;;;;8.80;89.19;98333.97;4186884;28;20241;-85
2022/09/23 01:27:55;;;;;;;7.30;5.68;;;;;;;8.77;90.00;98336.72;4172205;28;20421;-85
2022/09/23 01:30:17;;;;;;;7.03;6.20;;;;;;;8.77;88.96;98341.94;4188864;28;20296;-85
2022/09/23 01:32:25;;;;;;;8.23;5.88;;;;;;;8.73;89.56;98341.25;4172599;28;20245;-85
2022/09/23 01:34:33;;;;;;;6.22;5.60;;;;;;;8.73;89.22;98337.81;4169615;28;20249;-85
2022/09/23 01:36:39;;;;;;;6.88;6.10;;;;;;;8.69;89.66;98334.56;4158921;28;20230;-85
2022/09/23 01:38:49;;;;;;;6.50;5.43;;;;;;;8.64;89.98;98335.75;4174779;28;20321;-85
2022/09/23 01:40:59;;;;;;;8.10;6.18;;;;;;;8.62;88.55;98330.63;4172933;28;20237;-85
2022/09/23 01:43:05;;;;;;;8.63;6.13;;;;;;;8.64;88.64;98333.16;4157638;28;20235;-85
2022/09/23 01:45:11;;;;;;;6.75;6.00;;;;;;;8.64;89.94;98335.75;4174214;28;20305;-85
2022/09/23 01:47:16;;;;;;;7.20;6.50;;;;;;;8.61;89.04;98330.72;4176231;28;20307;-85
2022/09/23 01:49:26;;;;;;;7.07;5.78;;;;;;;8.59;90.19;98316.97;4175816;28;20272;-85
2022/09/23 01:51:32;;;;;;;7.47;6.53;;;;;;;8.56;88.96;98319.75;4176342;28;20213;-84
2022/09/23 01:53:39;;;;;;;6.80;5.50;;;;;;;8.55;89.83;98318.06;4194581;28;20231;-85
2022/09/23 01:55:46;;;;;;;7.25;5.65;;;;;;;8.54;90.35;98319.84;4177804;28;20218;-85
2022/09/23 01:57:52;;;;;;;5.97;5.38;;;;;;;8.53;90.40;98320.75;4176682;28;20229;-85
2022/09/23 01:59:58;;;;;;;7.32;6.28;;;;;;;8.57;90.39;98324.03;4175860;28;20229;-85
2022/09/23 02:02:04;;;;;;;8.20;6.40;;;;;;;8.57;89.28;98318.84;4178399;28;20249;-85
2022/09/23 02:04:10;;;;;;;6.20;5.60;;;;;;;8.54;89.14;98319.00;4179500;28;20663;-85
2022/09/23 02:06:17;;;;;;;7.18;6.00;;;;;;;8.52;89.85;98321.69;4174225;28;20683;-85
2022/09/23 02:08:23;;;;;;;6.43;5.82;;;;;;;8.50;90.50;98314.91;4175990;28;20232;-85
2022/09/23 02:10:30;;;;;;;8.75;5.90;;;;;;;8.48;89.65;98320.19;4181152;28;20222;-85
2022/09/23 02:12:37;;;;;;;7.32;6.60;;;;;;;8.46;90.60;98315.97;4175840;28;20257;-85
2022/09/23 02:14:44;;;;;;;7.10;6.30;;;;;;;8.47;90.24;98322.88;4188288;28;20259;-85
2022/09/23 02:16:48;;;;;;;7.07;6.38;;;;;;;8.44;89.15;98320.44;4175640;28;20246;-85
2022/09/23 02:18:53;;;;;;;6.60;5.80;;;;;;;8.42;89.51;98313.63;4176938;28;20221;-84
2022/09/23 02:20:59;;;;;;;8.02;6.07;;;;;;;8.40;90.49;98315.50;4172559;28;20234;-85
2022/09/23 02:23:07;;;;;;;7.40;5.63;;;;;;;8.40;90.39;98313.72;4179207;28;21497;-85
2022/09/23 02:25:11;;;;;;;6.93;5.88;;;;;;;8.37;89.18;98313.06;4190285;28;20227;-85
2022/09/23 02:27:20;;;;;;;6.85;6.15;;;;;;;8.34;89.41;98310.66;4191999;28;20739;-85
2022/09/23 02:29:27;;;;;;;11.35;6.25;;;;;;;8.31;90.19;98316.84;4177735;28;20714;-85
2022/09/23 02:31:33;;;;;;;7.03;6.32;;;;;;;8.30;88.73;98302.19;4174187;28;20227;-85
2022/09/23 02:33:39;;;;;;;6.95;6.25;;;;;;;8.29;89.15;98307.47;4176615;28;20314;-85
2022/09/23 02:35:47;;;;;;;6.80;5.43;;;;;;;8.25;90.30;98306.78;4173600;28;20237;-85
2022/09/23 02:37:58;;;;;;;6.72;5.43;;;;;;;8.23;89.57;98300.84;4178195;28;20231;-85
2022/09/23 02:40:11;;;;;;;6.32;5.72;;;;;;;8.21;90.57;98297.50;4194611;28;20633;-85
2022/09/23 02:42:18;;;;;;;6.57;5.90;;;;;;;8.21;90.10;98300.09;4172882;28;20232;-84
2022/09/23 02:44:22;;;;;;;6.93;6.03;;;;;;;8.20;88.98;98295.81;4175277;28;20306;-85
2022/09/23 02:46:26;;;;;;;5.93;5.32;;;;;;;8.19;90.34;98299.34;4174684;28;20317;-85
2022/09/23 02:48:32;;;;;;;7.28;5.72;;;;;;;8.19;90.65;98299.34;4173217;28;20685;-85
2022/09/23 02:50:36;;;;;;;7.90;6.10;;;;;;;8.19;90.36;98296.75;4180175;28;20301;-85
2022/09/23 02:52:39;;;;;;;9.13;5.60;;;;;;;8.17;90.17;98296.00;4193672;28;20648;-85
2022/09/23 02:54:42;;;;;;;8.75;5.95;;;;;;;8.14;90.40;98290.97;4175987;28;20312;-85
2022/09/23 02:56:48;;;;;;;6.97;5.78;;;;;;;8.14;89.12;98282.34;4178396;28;20662;-85
2022/09/23 02:58:53;;;;;;;5.80;5.30;;;;;;;8.12;90.49;98290.22;4170597;28;20333;-85
2022/09/23 03:01:01;;;;;;;6.75;6.07;;;;;;;8.11;90.40;98291.13;4173416;28;20629;-85
2022/09/23 03:03:11;;;;;;;6.50;5.80;;;;;;;8.10;89.88;98291.19;4176527;28;20249;-85
2022/09/23 03:05:22;;;;;;;6.50;5.90;;;;;;;8.07;89.34;98286.16;4175266;28;20236;-85
2022/09/23 03:07:33;;;;;;;7.20;5.68;;;;;;;8.06;90.51;98289.72;4173897;28;20237;-85
2022/09/23 03:09:41;;;;;;;6.65;5.57;;;;;;;8.06;88.95;98293.13;4191298;28;20244;-85
2022/09/23 03:11:48;;;;;;;6.03;5.43;;;;;;;8.03;90.06;98280.31;4171743;28;20229;-85
2022/09/23 03:14:05;;;;;;;5.88;5.25;;;;;;;8.02;89.58;98288.19;4170926;28;20217;-85
2022/09/23 03:16:15;;;;;;;6.50;5.90;;;;;;;7.99;89.79;98284.00;4155439;28;20215;-85
2022/09/23 03:18:20;;;;;;;10.07;6.38;;;;;;;8.00;89.43;98283.06;4155803;28;20236;-84
2022/09/23 03:20:28;;;;;;;6.22;5.63;;;;;;;8.01;89.57;98286.50;4175202;28;20234;-85
2022/09/23 03:22:34;;;;;;;7.32;6.32;;;;;;;7.98;89.31;98279.75;4174429;28;22108;-85
2022/09/23 03:24:38;;;;;;;6.70;6.10;;;;;;;7.99;90.54;98289.19;4173772;28;20307;-85
2022/09/23 03:26:44;;;;;;;6.90;6.20;;;;;;;8.01;89.32;98282.16;4173615;28;20747;-85
2022/09/23 03:28:49;;;;;;;6.15;5.55;;;;;;;7.97;89.15;98285.00;4171906;28;20280;-85
2022/09/23 03:30:53;;;;;;;7.80;7.00;;;;;;;7.97;90.28;98285.00;4171649;28;20253;-84
2022/09/23 03:32:59;;;;;;;6.90;6.20;;;;;;;7.96;90.08;98282.50;4177540;28;20339;-85
2022/09/23 03:35:04;;;;;;;6.93;5.95;;;;;;;7.96;89.22;98287.69;4190922;28;20738;-85
2022/09/23 03:37:10;;;;;;;8.68;6.32;;;;;;;7.95;89.17;98286.00;4191352;28;20308;-85
2022/09/23 03:39:21;;;;;;;6.30;5.70;;;;;;;7.92;90.37;98283.59;4173986;28;20279;-85
2022/09/23 03:41:28;;;;;;;7.35;6.15;;;;;;;7.93;90.41;98287.88;4171402;28;20225;-83
2022/09/23 03:43:32;;;;;;;6.30;5.68;;;;;;;7.90;89.22;98281.06;4171775;28;20711;-83
2022/09/23 03:45:42;;;;;;;9.55;5.90;;;;;;;7.87;89.88;98289.03;4172392;28;20318;-83
2022/09/23 03:47:45;;;;;;;6.10;5.50;;;;;;;7.85;88.98;98285.69;4172999;28;20217;-83
2022/09/23 03:49:49;;;;;;;5.82;5.22;;;;;;;7.85;90.05;98277.03;4171708;28;20643;-83
2022/09/23 03:51:52;;;;;;;7.70;6.40;;;;;;;7.86;90.59;98278.72;4174827;28;20222;-83
2022/09/23 03:53:56;;;;;;;6.32;5.72;;;;;;;7.86;89.67;98276.13;4190159;28;20326;-83
2022/09/23 03:55:59;;;;;;;7.53;6.10;;;;;;;7.83;90.27;98271.94;4157781;28;20314;-83
2022/09/23 03:58:03;;;;;;;6.90;6.20;;;;;;;7.84;90.65;98277.97;4191718;28;20294;-83
2022/09/23 04:00:07;;;;;;;6.82;6.05;;;;;;;7.82;90.06;98267.69;4190092;28;20719;-84
2022/09/23 04:02:18;;;;;;;8.43;6.68;;;;;;;7.80;89.22;98263.47;4173617;28;20319;-83
2022/09/23 04:04:21;;;;;;;8.32;5.80;;;;;;;7.79;89.28;98267.03;4171391;28;20269;-84
2022/09/23 04:06:24;;;;;;;7.22;6.30;;;;;;;7.77;90.05;98261.06;4174670;28;20635;-84
2022/09/23 04:08:27;;;;;;;6.32;5.72;;;;;;;7.77;89.57;98254.13;4174464;28;20230;-84
2022/09/23 04:10:30;;;;;;;7.40;6.60;;;;;;;7.76;89.64;98254.22;4184608;28;20280;-84
2022/09/23 04:12:33;;;;;;;7.30;6.00;;;;;;;7.76;90.44;98251.63;4184985;28;20700;-84
2022/09/23 04:14:36;;;;;;;7.32;6.45;;;;;;;7.75;89.30;98249.94;4172473;28;20777;-84
2022/09/23 04:16:39;;;;;;;7.75;6.60;;;;;;;7.74;90.72;98250.84;4171054;28;20225;-84
2022/09/23 04:18:43;;;;;;;8.15;6.47;;;;;;;7.71;89.17;98245.81;4187332;28;20346;-84
2022/09/23 04:20:46;;;;;;;7.30;6.18;;;;;;;7.69;89.64;98247.66;4169506;28;20249;-84
2022/09/23 04:22:49;;;;;;;9.05;6.10;;;;;;;7.65;89.11;98244.41;4172099;28;20221;-84
2022/09/23 04:24:52;;;;;;;9.20;6.55;;;;;;;7.65;89.53;98246.13;4170986;28;20302;-84
2022/09/23 04:26:56;;;;;;;6.75;5.90;;;;;;;7.63;89.98;98242.81;4169830;28;20221;-84
2022/09/23 04:28:59;;;;;;;7.47;6.40;;;;;;;7.59;90.21;98236.94;4147448;28;20256;-82
2022/09/23 04:31:03;;;;;;;7.97;6.75;;;;;;;7.60;89.38;98243.78;4189545;28;20217;-83
2022/09/23 04:33:07;;;;;;;7.53;6.10;;;;;;;7.59;89.20;98242.13;4154157;28;20702;-83
2022/09/23 04:35:11;;;;;;;10.38;6.70;;;;;;;7.59;89.57;98247.34;4172686;28;20227;-83
2022/09/23 04:37:14;;;;;;;8.20;7.10;;;;;;;7.58;89.45;98234.44;4155526;28;20222;-84
2022/09/23 04:39:17;;;;;;;9.80;6.30;;;;;;;7.59;90.57;98236.94;4176400;28;21011;-84
2022/09/23 04:41:20;;;;;;;8.13;6.20;;;;;;;7.57;90.00;98243.13;4175305;28;20685;-83
2022/09/23 04:43:23;;;;;;;8.60;6.40;;;;;;;7.55;90.54;98239.78;4172423;28;20224;-83
2022/09/23 04:45:26;;;;;;;7.80;7.00;;;;;;;7.52;90.67;98239.97;4172705;28;20218;-83
2022/09/23 04:47:31;;;;;;;10.38;6.63;;;;;;;7.51;89.91;98239.09;4175830;28;20230;-83
2022/09/23 04:49:34;;;;;;;8.85;6.50;;;;;;;7.49;90.01;98240.13;4174300;28;20256;-83
2022/09/23 04:51:42;;;;;;;7.35;6.13;;;;;;;7.48;89.93;98245.41;4174749;28;20631;-83
2022/09/23 04:53:46;;;;;;;10.80;6.70;;;;;;;7.48;89.76;98245.41;4171083;28;21371;-83
2022/09/23 04:55:51;;;;;;;8.20;6.65;;;;;;;7.46;91.00;98248.06;4171687;28;20268;-83
2022/09/23 04:57:54;;;;;;;7.78;6.40;;;;;;;7.45;90.25;98243.78;4178857;28;20300;-83
2022/09/23 04:59:57;;;;;;;8.07;6.40;;;;;;;7.46;89.94;98242.03;4173858;28;20233;-83
2022/09/23 05:01:59;;;;;;;8.88;6.47;;;;;;;7.46;90.79;98249.81;4171277;28;20218;-83
2022/09/23 05:04:06;;;;;;;7.75;6.57;;;;;;;7.46;90.35;98249.81;4173316;28;20759;-83
2022/09/23 05:06:12;;;;;;;6.57;5.95;;;;;;;7.45;89.70;98248.16;4178340;28;20240;-83
2022/09/23 05:08:16;;;;;;;7.97;7.18;;;;;;;7.43;90.42;98250.81;4173188;28;20272;-83
2022/09/23 05:10:19;;;;;;;8.45;6.75;;;;;;;7.41;90.53;98247.47;4175572;28;20226;-83
2022/09/23 05:12:22;;;;;;;8.38;6.50;;;;;;;7.43;89.90;98245.63;4177397;28;20605;-83
2022/09/23 05:14:25;;;;;;;7.20;6.00;;;;;;;7.46;89.72;98245.47;4173411;28;20235;-83
2022/09/23 05:16:28;;;;;;;6.82;5.82;;;;;;;7.46;90.44;98255.00;4175955;28;20647;-83
2022/09/23 05:18:32;;;;;;;6.78;6.10;;;;;;;7.44;90.72;98252.47;4172949;28;20215;-83
2022/09/23 05:20:35;;;;;;;7.65;6.40;;;;;;;7.45;89.74;98251.56;4176476;28;20258;-83
2022/09/23 05:22:37;;;;;;;7.30;6.45;;;;;;;7.46;90.75;98255.84;4170215;28;20231;-84
2022/09/23 05:24:42;;;;;;;9.00;6.90;;;;;;;7.49;91.35;98260.88;4179472;28;20226;-83
2022/09/23 05:26:44;;;;;;;7.15;6.45;;;;;;;7.48;90.89;98252.25;4174835;28;20718;-83
2022/09/23 05:28:48;;;;;;;10.82;6.88;;;;;;;7.52;90.25;98258.13;4174269;28;20227;-83
2022/09/23 05:30:51;;;;;;;7.22;6.43;;;;;;;7.62;90.74;98261.88;4169910;28;20301;-83
2022/09/23 05:32:54;;;;;;;8.32;6.20;;;;;;;7.77;90.56;98261.91;4176037;28;20222;-83
2022/09/23 05:34:57;;;;;;;7.90;6.50;;;;;;;7.96;90.14;98258.19;4174779;28;20214;-83
2022/09/23 05:37:00;;;;;;;8.45;6.57;;;;;;;8.13;90.38;98265.94;4178394;28;20745;-83
2022/09/23 05:39:04;;;;;;;7.13;6.40;;;;;;;8.27;90.20;98272.94;4182223;28;20225;-83
2022/09/23 05:41:11;;;;;;;10.63;6.88;;;;;;;8.42;88.68;98279.84;4180597;28;20282;-83
2022/09/23 05:43:14;;;;;;;7.93;6.28;;;;;;;8.53;89.07;98270.53;4179700;28;20686;-83
2022/09/23 05:45:17;;;;;;;7.25;6.40;;;;;;;8.64;89.44;98270.75;4195481;28;20217;-83
2022/09/23 05:47:20;;;;;;;8.18;6.82;;;;;;;8.78;88.60;98282.03;4179807;28;20313;-83
2022/09/23 05:49:23;;;;;;;7.93;6.80;;;;;;;8.89;88.60;98278.81;4179535;28;20313;-83
2022/09/23 05:51:46;;;;;;;8.63;7.03;;;;;;;8.98;87.38;98285.13;4176673;28;20280;-84
2022/09/23 05:53:51;;;;;;;7.95;6.60;;;;;;;9.12;87.54;98287.75;4181835;28;20948;-84
2022/09/23 05:55:54;;;;;;;7.60;6.90;;;;;;;9.29;87.90;98285.00;4175138;28;20699;-83
2022/09/23 05:57:59;;;;;;;9.40;6.80;;;;;;;9.45;87.09;98285.72;4178686;28;20222;-84
2022/09/23 06:00:03;;;;;;;10.18;6.97;;;;;;;9.58;86.93;98287.50;4177542;28;20269;-84
2022/09/23 06:02:14;;;;;;;6.95;6.25;;;;;;;9.72;86.36;98292.69;4181175;28;20700;-84
2022/09/23 06:04:17;;;;;;;7.28;6.45;;;;;;;9.87;86.62;98291.75;4171732;28;20271;-83
2022/09/23 06:06:22;;;;;;;6.75;5.85;;;;;;;10.01;86.03;98286.53;4176143;28;20272;-85
2022/09/23 06:08:25;;;;;;;7.28;6.55;;;;;;;10.12;84.99;98284.94;4163489;28;20744;-83
2022/09/23 06:10:28;;;;;;;8.50;6.77;;;;;;;10.27;84.94;98288.31;4169743;28;20307;-84
2022/09/23 06:12:31;;;;;;;7.63;6.55;;;;;;;10.37;84.58;98285.88;4158335;28;20706;-83
2022/09/23 06:14:35;;;;;;;8.50;6.90;;;;;;;10.44;84.70;98283.69;4160918;28;20698;-83
2022/09/23 06:16:38;;;;;;;8.02;6.93;;;;;;;10.54;83.58;98287.38;4193381;28;20639;-84
2022/09/23 06:18:43;;;;;;;8.93;6.60;;;;;;;10.64;84.40;98284.06;4178299;28;20753;-83
2022/09/23 06:20:46;;;;;;;8.93;6.63;;;;;;;10.72;83.71;98283.56;4180548;28;20660;-83
2022/09/23 06:22:49;;;;;;;8.17;6.77;;;;;;;10.78;83.54;98285.75;4173867;28;20659;-83
2022/09/23 06:24:57;;;;;;;9.57;7.40;;;;;;;10.87;82.67;98286.84;4177240;28;20657;-83
2022/09/23 06:27:01;;;;;;;10.50;7.00;;;;;;;10.95;82.28;98283.72;4176782;28;20647;-84
2022/09/23 06:29:08;;;;;;;9.23;6.87;;;;;;;11.08;82.78;98277.59;4178120;28;20655;-84
2022/09/23 06:31:14;;;;;;;8.90;7.63;;;;;;;11.27;81.64;98285.81;4175821;28;21218;-84
2022/09/23 06:33:17;;;;;;;10.60;7.60;;;;;;;11.38;83.18;98284.16;4193374;28;22451;-84
2022/09/23 06:35:33;;;;;;;7.70;6.67;;;;;;;11.53;80.98;98283.16;4174473;28;20694;-84
2022/09/23 06:37:36;;;;;;;7.80;7.03;;;;;;;11.66;81.81;98290.97;4175563;28;20652;-82
2022/09/23 06:39:39;;;;;;;8.48;7.43;;;;;;;11.78;81.95;98289.16;4152886;28;20653;-84
2022/09/23 06:41:43;;;;;;;9.47;7.23;;;;;;;11.87;79.42;98282.47;4177329;28;20242;-84
2022/09/23 06:43:48;;;;;;;8.37;7.03;;;;;;;11.94;81.47;98284.53;4178102;28;20648;-84
2022/09/23 06:45:52;;;;;;;7.93;6.60;;;;;;;12.12;80.28;98295.44;4191540;28;20636;-83
2022/09/23 06:47:57;;;;;;;9.00;7.70;;;;;;;12.29;78.93;98303.78;4192830;28;20662;-85
2022/09/23 06:50:00;;;;;;;8.07;7.23;;;;;;;12.46;79.71;98292.94;4175482;28;20644;-84
2022/09/23 06:52:05;;;;;;;9.60;7.93;;;;;;;12.56;77.93;98293.94;4176477;28;20652;-83
2022/09/23 06:54:08;;;;;;;8.50;7.70;;;;;;;12.73;79.51;98305.69;4189074;28;21225;-83
2022/09/23 06:56:11;;;;;;;8.27;7.57;;;;;;;12.89;77.64;98301.00;4159852;28;20649;-83
2022/09/23 06:58:14;;;;;;;8.63;7.73;;;;;;;13.00;79.00;98303.66;4175312;28;20648;-83
2022/09/23 07:00:18;;;;;;;11.60;8.13;;;;;;;13.16;77.84;98309.44;4179050;28;20757;-83
2022/09/23 07:02:21;;;;;;;7.47;6.73;;;;;;;13.22;75.80;98307.16;4181243;28;21065;-83
2022/09/23 07:04:25;;;;;;;10.53;7.50;;;;;;;13.23;77.24;98302.78;4191845;28;20682;-83
2022/09/23 07:06:31;;;;;;;7.57;6.77;;;;;;;13.26;77.54;98298.16;4175180;28;21206;-83
2022/09/23 07:08:35;;;;;;;8.30;7.33;;;;;;;13.35;79.64;98299.22;4162885;28;20684;-84
2022/09/23 07:10:38;;;;;;;8.77;7.93;;;;;;;13.43;79.07;98302.09;4170763;28;21247;-81
2022/09/23 07:12:41;;;;;;;10.33;7.60;;;;;;;13.49;78.40;98304.25;4171968;28;20834;-81
2022/09/23 07:14:44;;;;;;;8.70;7.03;;;;;;;13.58;79.39;98311.41;4159754;28;20655;-81
2022/09/23 07:16:49;;;;;;;8.83;7.30;;;;;;;13.63;79.65;98307.47;4173976;28;20660;-81
2022/09/23 07:18:52;;;;;;;8.73;7.30;;;;;;;13.72;78.20;98310.22;4164277;28;20652;-81
2022/09/23 07:20:57;;;;;;;8.40;7.40;;;;;;;13.79;77.78;98308.78;4181382;28;20683;-81
2022/09/23 07:23:00;;;;;;;9.20;7.80;;;;;;;13.88;79.90;98305.47;4160714;28;20700;-81
2022/09/23 07:25:04;;;;;;;8.57;7.43;;;;;;;14.08;78.46;98301.31;4187058;28;21205;-81
2022/09/23 07:27:08;;;;;;;9.90;7.93;;;;;;;14.19;76.67;98302.97;4174675;28;20680;-81
2022/09/23 07:29:13;;;;;;;8.23;7.17;;;;;;;14.19;75.51;98299.50;4176318;28;20648;-81
2022/09/23 07:31:17;;;;;;;8.93;7.67;;;;;;;14.27;76.83;98299.75;4172969;28;20720;-81
2022/09/23 07:33:38;;;;;;;7.73;7.03;;;;;;;14.31;75.29;98298.53;4177249;28;20641;-81
2022/09/23 07:35:42;;;;;;;7.57;6.83;;;;;;;14.44;75.93;98296.59;4178931;28;20748;-81
2022/09/23 07:37:47;;;;;;;8.00;7.20;;;;;;;14.69;76.49;98303.19;4180104;28;20802;-81
2022/09/23 07:39:51;;;;;;;8.30;7.30;;;;;;;14.86;73.42;98305.28;4178806;28;21028;-81
2022/09/23 07:41:54;;;;;;;8.50;7.70;;;;;;;15.05;74.07;98312.47;4197614;28;20659;-81
2022/09/23 07:43:59;;;;;;;8.90;7.63;;;;;;;15.26;73.57;98309.78;4164758;28;21074;-81
2022/09/23 07:46:07;;;;;;;9.00;8.10;;;;;;;15.39;73.43;98312.19;4179798;28;20702;-81
2022/09/23 07:48:11;;;;;;;8.13;7.33;;;;;;;15.54;75.54;98308.28;4178635;28;20747;-81
2022/09/23 07:50:14;;;;;;;10.40;6.63;;;;;;;15.62;73.21;98312.75;4176369;28;20651;-81
2022/09/23 07:52:18;;;;;;;7.57;6.80;;;;;;;15.69;71.35;98316.53;4195555;28;20701;-81
2022/09/23 07:54:24;;;;;;;8.00;7.20;;;;;;;15.92;73.06;98317.19;4179980;28;20662;-81
2022/09/23 07:56:29;;;;;;;7.50;6.70;;;;;;;16.19;73.23;98310.38;4178289;28;20682;-81
2022/09/23 07:58:33;;;;;;;6.23;5.63;;;;;;;16.39;71.05;98315.59;4178905;28;20663;-81
2022/09/23 08:00:36;;;;;;;6.53;5.73;;;;;;;16.45;68.67;98314.22;4181086;28;20635;-81
2022/09/23 08:02:39;;;;;;;6.70;6.10;;;;;;;16.41;71.15;98318.09;4176665;28;20677;-81
2022/09/23 08:04:42;;;;;;;7.47;6.57;;;;;;;16.49;70.41;98312.97;4157057;28;21223;-81
2022/09/23 08:06:47;;;;;;;8.47;5.83;;;;;;;16.43;70.28;98314.34;4157813;28;20656;-82
2022/09/23 08:08:50;;;;;;;6.40;5.80;;;;;;;16.45;71.41;98312.44;4182447;28;20680;-83
2022/09/23 08:11:02;;;;;;;6.70;6.00;;;;;;;16.49;71.41;98316.44;4173035;28;20678;-83
2022/09/23 08:13:05;;;;;;;6.47;5.87;;;;;;;16.50;71.74;98309.41;4186769;28;20697;-82
2022/09/23 08:15:09;;;;;;;6.63;5.93;;;;;;;16.54;71.28;98309.81;4179358;28;21201;-82
2022/09/23 08:17:12;;;;;;;5.93;5.33;;;;;;;16.61;70.96;98304.81;4173695;28;20640;-82
2022/09/23 08:19:16;;;;;;;6.70;6.00;;;;;;;16.65;71.00;98307.03;4170517;28;20637;-82
2022/09/23 08:21:19;;;;;;;7.33;6.63;;;;;;;16.69;72.59;98302.34;4173327;28;20639;-82
2022/09/23 08:23:22;;;;;;;6.53;5.83;;;;;;;16.71;69.42;98308.31;4175115;28;20670;-82
2022/09/23 08:25:26;;;;;;;8.37;6.03;;;;;;;16.71;70.96;98305.69;4158455;28;20694;-82
2022/09/23 08:27:31;;;;;;;7.07;6.37;;;;;;;16.78;71.79;98302.34;4158565;28;21237;-82
2022/09/23 08:29:34;;;;;;;5.97;5.13;;;;;;;16.70;69.26;98304.00;4173499;28;20721;-82
2022/09/23 08:31:37;;;;;;;7.03;6.33;;;;;;;16.64;69.61;98305.41;4173096;28;21283;-82
2022/09/23 08:33:41;;;;;;;6.27;5.67;;;;;;;16.62;69.96;98299.41;4176397;28;20709;-82
2022/09/23 08:35:44;;;;;;;6.77;6.07;;;;;;;16.58;70.92;98300.69;4172181;28;20690;-82
2022/09/23 08:37:47;;;;;;;7.50;6.10;;;;;;;16.69;71.61;98305.81;4178550;28;20628;-82
2022/09/23 08:39:50;;;;;;;6.97;5.50;;;;;;;16.80;71.98;98304.84;4185660;28;20721;-82
2022/09/23 08:42:14;;;;;;;7.70;6.00;;;;;;;16.88;71.98;98299.72;4175998;28;20707;-82
2022/09/23 08:44:21;;;;;;;6.90;6.20;;;;;;;16.92;69.73;98301.13;4190049;28;20756;-82
2022/09/23 08:46:26;;;;;;;6.37;5.27;;;;;;;16.99;71.07;98305.69;4177034;28;20666;-82
2022/09/23 08:48:34;;;;;;;6.27;5.23;;;;;;;17.03;71.16;98307.06;4176493;28;20678;-82
2022/09/23 08:50:42;;;;;;;6.73;6.03;;;;;;;17.03;68.98;98305.28;4177338;28;20641;-83
2022/09/23 08:52:50;;;;;;;8.13;5.80;;;;;;;17.10;68.67;98301.09;4179709;28;21307;-82
2022/09/23 08:54:54;;;;;;;4.57;4.17;;;;;;;17.17;68.09;98304.84;4175476;28;20648;-80
2022/09/23 08:56:59;;;;;;;4.63;4.23;;;;;;;17.34;69.10;98300.72;4158022;28;21024;-81
2022/09/23 08:59:07;;;;;;;5.87;4.73;;;;;;;17.46;68.69;98304.84;4173217;28;20687;-82
2022/09/23 09:01:15;;;;;;;5.50;4.43;;;;;;;17.60;70.76;98307.88;4178120;28;20647;-82
2022/09/23 09:03:21;;;;;;;5.87;4.63;;;;;;;17.68;65.38;98305.34;4191774;28;21327;-82
2022/09/23 09:05:26;;;;;;;4.60;4.03;;;;;;;17.72;66.09;98307.53;4191595;28;21272;-82
2022/09/23 09:07:32;;;;;;;5.53;3.57;;;;;;;17.87;67.46;98300.00;4178449;28;20667;-82
2022/09/23 09:09:42;;;;;;;4.07;3.60;;;;;;;18.00;67.12;98299.53;4174678;28;20651;-82
2022/09/23 09:11:46;;;;;;;4.33;3.93;;;;;;;18.16;67.21;98291.00;4173378;28;21252;-82
2022/09/23 09:14:00;;;;;;;8.20;4.40;;;;;;;18.24;65.01;98296.41;4173812;28;20724;-84
2022/09/23 09:16:18;;;;;;;4.30;3.80;;;;;;;18.29;67.04;98286.25;4175617;28;20644;-84
2022/09/23 09:18:47;;;;;;;3.77;3.20;;;;;;;18.32;64.25;98288.59;4155604;28;20680;-85
2022/09/23 09:20:57;;;;;;;3.97;3.17;;;;;;;18.37;64.78;98281.03;4173304;28;21052;-85
2022/09/23 09:23:04;;;;;;;5.30;3.23;;;;;;;18.45;64.07;98284.63;4151077;28;20713;-84
2022/09/23 09:25:18;;;;;;;3.90;3.00;;;;;;;18.50;63.02;98279.72;4172119;28;20657;-82
2022/09/23 09:27:23;;;;;;;8.47;3.30;;;;;;;18.57;65.17;98286.91;4173377;28;20649;-82
2022/09/23 09:29:28;;;;;;;4.37;3.37;;;;;;;18.61;64.53;98282.97;4172863;28;21216;-84
2022/09/23 09:31:42;;;;;;;4.60;3.40;;;;;;;18.68;66.05;98280.56;4167685;28;20653;-83
2022/09/23 09:33:47;;;;;;;4.70;3.60;;;;;;;18.69;63.05;98284.88;4171593;28;20649;-83
2022/09/23 09:36:00;;;;;;;4.10;3.40;;;;;;;18.70;64.29;98270.66;4172457;28;20656;-83
2022/09/23 09:38:04;;;;;;;3.97;3.57;;;;;;;18.78;63.98;98268.94;4176182;28;20710;-83
2022/09/23 09:40:10;;;;;;;3.70;3.30;;;;;;;18.88;65.42;98276.78;4172502;28;20680;-83
2022/09/23 09:42:19;;;;;;;4.23;3.83;;;;;;;18.92;65.98;98271.06;4156692;28;20645;-83
2022/09/23 09:44:26;;;;;;;4.37;3.87;;;;;;;18.96;64.20;98264.50;4174810;28;22097;-83
2022/09/23 09:46:54;;;;;;;3.97;2.97;;;;;;;18.94;63.81;98261.16;4175973;28;20647;-83
2022/09/23 09:49:00;;;;;;;6.07;3.40;;;;;;;18.93;63.93;98262.97;4173671;28;20664;-83
2022/09/23 09:51:18;;;;;;;3.63;3.00;;;;;;;18.93;63.79;98262.97;4173547;28;20694;-82
2022/09/23 09:53:24;;;;;;;3.83;3.37;;;;;;;19.04;64.24;98259.28;4176144;28;20657;-83
2022/09/23 09:55:28;;;;;;;3.83;3.30;;;;;;;19.03;63.40;98253.19;4175441;28;20723;-81
2022/09/23 09:57:35;;;;;;;4.53;3.43;;;;;;;19.05;64.15;98250.41;4178167;28;20661;-81